sensor_id;sensor_type;location;lat;lon;timestamp;pressure;altitude;pressure_sealevel;temperature;humidity
75549;BME280;64133;56.002;37.208;2023-03-18T00:01:18;100675.41;;;-3.56;45.95
75549;BME280;64133;56.002;37.208;2023-03-18T00:06:23;100676.30;;;-3.61;46.19
75549;BME280;64133;56.002;37.208;2023-03-18T00:11:28;100681.02;;;-3.67;46.27
75549;BME280;64133;56.002;37.208;2023-03-18T00:16:35;100683.17;;;-3.65;46.20
75549;BME280;64133;56.002;37.208;2023-03-18T00:21:40;100681.90;;;-3.69;46.40
75549;BME280;64133;56.002;37.208;2023-03-18T00:26:43;100683.18;;;-3.75;46.64
75549;BME280;64133;56.002;37.208;2023-03-18T00:31:48;100685.32;;;-3.75;46.80
75549;BME280;64133;56.002;37.208;2023-03-18T00:36:52;100690.94;;;-3.78;46.78
75549;BME280;64133;56.002;37.208;2023-03-18T00:41:57;100691.35;;;-3.77;46.77
75549;BME280;64133;56.002;37.208;2023-03-18T00:47:02;100692.22;;;-3.82;46.88
75549;BME280;64133;56.002;37.208;2023-03-18T00:52:05;100693.93;;;-3.88;47.08
75549;BME280;64133;56.002;37.208;2023-03-18T00:57:10;100700.38;;;-3.87;47.18
75549;BME280;64133;56.002;37.208;2023-03-18T01:02:15;100699.93;;;-3.88;47.27
75549;BME280;64133;56.002;37.208;2023-03-18T01:07:19;100702.52;;;-3.92;47.51
75549;BME280;64133;56.002;37.208;2023-03-18T01:12:23;100702.95;;;-3.97;47.64
75549;BME280;64133;56.002;37.208;2023-03-18T01:17:28;100700.80;;;-3.96;47.77
75549;BME280;64133;56.002;37.208;2023-03-18T01:22:31;100717.54;;;-3.98;47.88
75549;BME280;64133;56.002;37.208;2023-03-18T01:27:36;100714.55;;;-4.03;48.21
75549;BME280;64133;56.002;37.208;2023-03-18T01:32:40;100718.85;;;-4.13;48.44
75549;BME280;64133;56.002;37.208;2023-03-18T01:37:45;100730.41;;;-4.10;48.48
75549;BME280;64133;56.002;37.208;2023-03-18T01:42:55;100730.84;;;-4.12;48.58
75549;BME280;64133;56.002;37.208;2023-03-18T01:47:58;100733.41;;;-4.20;49.06
75549;BME280;64133;56.002;37.208;2023-03-18T01:53:03;100732.56;;;-4.30;49.31
75549;BME280;64133;56.002;37.208;2023-03-18T01:58:07;100743.69;;;-4.27;49.48
75549;BME280;64133;56.002;37.208;2023-03-18T02:03:09;100741.14;;;-4.31;49.74
75549;BME280;64133;56.002;37.208;2023-03-18T02:08:14;100746.26;;;-4.37;50.10
75549;BME280;64133;56.002;37.208;2023-03-18T02:13:17;100752.72;;;-4.31;50.10
75549;BME280;64133;56.002;37.208;2023-03-18T02:18:23;100761.70;;;-4.34;50.08
75549;BME280;64133;56.002;37.208;2023-03-18T02:23:31;100765.13;;;-4.39;50.18
75549;BME280;64133;56.002;37.208;2023-03-18T02:28:33;100766.83;;;-4.46;50.37
75549;BME280;64133;56.002;37.208;2023-03-18T02:33:36;100771.96;;;-4.46;50.44
75549;BME280;64133;56.002;37.208;2023-03-18T02:38:42;100782.26;;;-4.47;50.54
75549;BME280;64133;56.002;37.208;2023-03-18T02:43:47;100788.25;;;-4.47;50.55
75549;BME280;64133;56.002;37.208;2023-03-18T02:48:51;100786.97;;;-4.47;50.60
75549;BME280;64133;56.002;37.208;2023-03-18T02:53:57;100794.25;;;-4.45;50.66
75549;BME280;64133;56.002;37.208;2023-03-18T02:59:00;100796.84;;;-4.43;50.67
75549;BME280;64133;56.002;37.208;2023-03-18T03:04:04;100800.23;;;-4.50;50.86
75549;BME280;64133;56.002;37.208;2023-03-18T03:09:08;100804.97;;;-4.47;50.69
75549;BME280;64133;56.002;37.208;2023-03-18T03:14:13;100813.08;;;-4.53;50.93
75549;BME280;64133;56.002;37.208;2023-03-18T03:19:16;100810.09;;;-4.56;50.85
75549;BME280;64133;56.002;37.208;2023-03-18T03:24:21;100822.06;;;-4.58;51.20
75549;BME280;64133;56.002;37.208;2023-03-18T03:29:24;100822.09;;;-4.57;51.08
75549;BME280;64133;56.002;37.208;2023-03-18T03:34:28;100817.34;;;-4.63;51.51
75549;BME280;64133;56.002;37.208;2023-03-18T03:39:34;100821.66;;;-4.50;51.08
75549;BME280;64133;56.002;37.208;2023-03-18T03:44:39;100820.78;;;-4.58;51.60
75549;BME280;64133;56.002;37.208;2023-03-18T03:49:42;100823.81;;;-4.57;51.55
75549;BME280;64133;56.002;37.208;2023-03-18T03:54:47;100824.30;;;-4.24;51.68
75549;BME280;64133;56.002;37.208;2023-03-18T03:59:51;100823.23;;;-0.61;47.13
75549;BME280;64133;56.002;37.208;2023-03-18T04:04:56;100818.75;;;1.51;42.39
75549;BME280;64133;56.002;37.208;2023-03-18T04:10:01;100817.80;;;3.13;39.89
75549;BME280;64133;56.002;37.208;2023-03-18T04:15:07;100815.85;;;1.46;38.46
75549;BME280;64133;56.002;37.208;2023-03-18T04:20:14;100831.27;;;-2.34;44.42
75549;BME280;64133;56.002;37.208;2023-03-18T04:25:18;100826.46;;;1.13;44.26
75549;BME280;64133;56.002;37.208;2023-03-18T04:30:23;100820.73;;;6.23;35.28
75549;BME280;64133;56.002;37.208;2023-03-18T04:35:28;100830.13;;;3.97;33.71
75549;BME280;64133;56.002;37.208;2023-03-18T04:40:32;100840.94;;;-1.45;41.52
75549;BME280;64133;56.002;37.208;2023-03-18T04:45:37;100836.60;;;-2.75;44.82
75549;BME280;64133;56.002;37.208;2023-03-18T04:50:42;100835.22;;;1.30;44.87
75549;BME280;64133;56.002;37.208;2023-03-18T04:55:49;100835.74;;;8.96;31.49
75549;BME280;64133;56.002;37.208;2023-03-18T05:00:54;100836.28;;;11.35;28.74
75549;BME280;64133;56.002;37.208;2023-03-18T05:05:58;100838.16;;;13.79;25.36
75549;BME280;64133;56.002;37.208;2023-03-18T05:11:03;100847.32;;;14.17;23.95
75549;BME280;64133;56.002;37.208;2023-03-18T05:16:08;100856.09;;;16.30;22.40
75549;BME280;64133;56.002;37.208;2023-03-18T05:21:13;100858.70;;;16.79;21.44
75549;BME280;64133;56.002;37.208;2023-03-18T05:26:17;100858.37;;;17.50;20.68
75549;BME280;64133;56.002;37.208;2023-03-18T05:31:22;100868.38;;;19.01;19.10
75549;BME280;64133;56.002;37.208;2023-03-18T05:36:27;100876.23;;;15.83;20.98
75549;BME280;64133;56.002;37.208;2023-03-18T05:41:31;100876.66;;;19.17;18.96
75549;BME280;64133;56.002;37.208;2023-03-18T05:46:36;100876.33;;;17.58;19.21
75549;BME280;64133;56.002;37.208;2023-03-18T05:51:41;100875.98;;;19.76;17.59
75549;BME280;64133;56.002;37.208;2023-03-18T05:56:45;100884.41;;;22.65;15.75
75549;BME280;64133;56.002;37.208;2023-03-18T06:01:50;100887.59;;;23.89;14.81
75549;BME280;64133;56.002;37.208;2023-03-18T06:06:55;100886.28;;;23.01;14.70
75549;BME280;64133;56.002;37.208;2023-03-18T06:11:59;100889.92;;;20.70;16.05
75549;BME280;64133;56.002;37.208;2023-03-18T06:17:04;100887.40;;;23.43;14.02
75549;BME280;64133;56.002;37.208;2023-03-18T06:22:09;100885.34;;;25.05;13.20
75549;BME280;64133;56.002;37.208;2023-03-18T06:27:13;100885.80;;;25.61;12.63
75549;BME280;64133;56.002;37.208;2023-03-18T06:32:18;100897.83;;;24.83;12.71
75549;BME280;64133;56.002;37.208;2023-03-18T06:37:23;100891.72;;;25.12;12.82
75549;BME280;64133;56.002;37.208;2023-03-18T06:42:27;100894.81;;;26.49;11.53
75549;BME280;64133;56.002;37.208;2023-03-18T06:47:32;100901.02;;;22.72;13.03
75549;BME280;64133;56.002;37.208;2023-03-18T06:52:37;100906.06;;;23.37;12.68
75549;BME280;64133;56.002;37.208;2023-03-18T06:57:41;100906.27;;;27.04;11.17
75549;BME280;64133;56.002;37.208;2023-03-18T07:02:46;100910.11;;;27.27;10.76
75549;BME280;64133;56.002;37.208;2023-03-18T07:07:52;100905.91;;;27.70;10.24
75549;BME280;64133;56.002;37.208;2023-03-18T07:12:56;100910.44;;;26.43;10.49
75549;BME280;64133;56.002;37.208;2023-03-18T07:18:01;100909.30;;;27.34;10.17
75549;BME280;64133;56.002;37.208;2023-03-18T07:23:06;100907.03;;;28.81;9.23
75549;BME280;64133;56.002;37.208;2023-03-18T07:28:11;100908.69;;;28.31;9.66
75549;BME280;64133;56.002;37.208;2023-03-18T07:33:15;100905.58;;;28.04;9.69
75549;BME280;64133;56.002;37.208;2023-03-18T07:38:20;100904.25;;;30.10;8.43
75549;BME280;64133;56.002;37.208;2023-03-18T07:43:25;100905.23;;;30.28;8.19
75549;BME280;64133;56.002;37.208;2023-03-18T07:48:29;100906.92;;;26.53;9.28
75549;BME280;64133;56.002;37.208;2023-03-18T07:53:34;100910.23;;;24.42;9.99
75549;BME280;64133;56.002;37.208;2023-03-18T07:58:39;100906.20;;;26.19;9.10
75549;BME280;64133;56.002;37.208;2023-03-18T08:03:43;100903.44;;;27.93;8.60
75549;BME280;64133;56.002;37.208;2023-03-18T08:08:48;100896.80;;;26.51;9.13
75549;BME280;64133;56.002;37.208;2023-03-18T08:13:53;100896.37;;;28.53;8.44
75549;BME280;64133;56.002;37.208;2023-03-18T08:18:57;100896.40;;;30.11;7.33
75549;BME280;64133;56.002;37.208;2023-03-18T08:24:02;100897.43;;;29.38;6.94
75549;BME280;64133;56.002;37.208;2023-03-18T08:29:07;100885.78;;;28.98;7.43
75549;BME280;64133;56.002;37.208;2023-03-18T08:34:12;100886.94;;;29.06;6.94
75549;BME280;64133;56.002;37.208;2023-03-18T08:39:16;100888.11;;;28.50;6.91
75549;BME280;64133;56.002;37.208;2023-03-18T08:44:21;100891.42;;;25.70;7.44
75549;BME280;64133;56.002;37.208;2023-03-18T08:49:26;100890.03;;;26.94;6.39
75549;BME280;64133;56.002;37.208;2023-03-18T08:54:30;100891.73;;;24.08;7.20
75549;BME280;64133;56.002;37.208;2023-03-18T08:59:35;100887.93;;;20.90;8.29
75549;BME280;64133;56.002;37.208;2023-03-18T09:04:40;100881.42;;;12.63;11.81
75549;BME280;64133;56.002;37.208;2023-03-18T09:09:44;100882.09;;;11.48;13.46
75549;BME280;64133;56.002;37.208;2023-03-18T09:14:49;100878.80;;;9.77;14.96
75549;BME280;64133;56.002;37.208;2023-03-18T09:19:54;100872.91;;;9.80;15.77
75549;BME280;64133;56.002;37.208;2023-03-18T09:24:58;100864.45;;;9.82;15.89
75549;BME280;64133;56.002;37.208;2023-03-18T09:30:04;100870.80;;;10.35;15.83
75549;BME280;64133;56.002;37.208;2023-03-18T09:35:10;100867.02;;;10.31;16.48
75549;BME280;64133;56.002;37.208;2023-03-18T09:40:17;100865.05;;;10.03;16.97
75549;BME280;64133;56.002;37.208;2023-03-18T09:45:23;100860.64;;;10.20;16.77
75549;BME280;64133;56.002;37.208;2023-03-18T09:50:37;100855.20;;;10.39;16.95
75549;BME280;64133;56.002;37.208;2023-03-18T09:55:42;100861.20;;;10.34;17.08
75549;BME280;64133;56.002;37.208;2023-03-18T10:00:46;100847.02;;;9.89;16.93
75549;BME280;64133;56.002;37.208;2023-03-18T10:05:51;100844.95;;;8.70;17.02
75549;BME280;64133;56.002;37.208;2023-03-18T10:10:55;100838.41;;;9.29;17.24
75549;BME280;64133;56.002;37.208;2023-03-18T10:16:00;100835.75;;;8.87;16.83
75549;BME280;64133;56.002;37.208;2023-03-18T10:21:10;100832.86;;;9.82;16.13
75549;BME280;64133;56.002;37.208;2023-03-18T10:26:15;100826.59;;;10.40;15.51
75549;BME280;64133;56.002;37.208;2023-03-18T10:31:26;100816.34;;;11.79;14.94
75549;BME280;64133;56.002;37.208;2023-03-18T10:36:33;100814.78;;;14.45;13.06
75549;BME280;64133;56.002;37.208;2023-03-18T10:41:36;100816.45;;;14.58;12.14
75549;BME280;64133;56.002;37.208;2023-03-18T10:46:41;100802.03;;;16.03;11.05
75549;BME280;64133;56.002;37.208;2023-03-18T10:51:48;100793.25;;;14.90;11.13
75549;BME280;64133;56.002;37.208;2023-03-18T10:56:51;100802.36;;;16.09;10.60
75549;BME280;64133;56.002;37.208;2023-03-18T11:01:58;100802.34;;;15.72;10.84
75549;BME280;64133;56.002;37.208;2023-03-18T11:07:02;100795.45;;;15.69;10.69
75549;BME280;64133;56.002;37.208;2023-03-18T11:12:13;100798.96;;;16.72;10.24
75549;BME280;64133;56.002;37.208;2023-03-18T11:17:21;100796.42;;;15.34;10.10
75549;BME280;64133;56.002;37.208;2023-03-18T11:22:26;100796.50;;;12.08;11.27
75549;BME280;64133;56.002;37.208;2023-03-18T11:27:34;100780.93;;;10.25;13.56
75549;BME280;64133;56.002;37.208;2023-03-18T11:32:41;100773.55;;;10.90;13.11
75549;BME280;64133;56.002;37.208;2023-03-18T11:37:45;100773.27;;;13.79;11.91
75549;BME280;64133;56.002;37.208;2023-03-18T11:42:48;100765.77;;;15.42;11.15
75549;BME280;64133;56.002;37.208;2023-03-18T11:47:52;100759.93;;;16.14;10.71
75549;BME280;64133;56.002;37.208;2023-03-18T11:52:58;100753.09;;;15.17;11.00
75549;BME280;64133;56.002;37.208;2023-03-18T11:58:24;100749.82;;;15.19;11.13
75549;BME280;64133;56.002;37.208;2023-03-18T12:04:06;100756.58;;;13.03;11.63
75549;BME280;64133;56.002;37.208;2023-03-18T12:09:13;100749.33;;;11.89;12.63
75549;BME280;64133;56.002;37.208;2023-03-18T12:14:18;100743.89;;;9.10;13.95
75549;BME280;64133;56.002;37.208;2023-03-18T12:19:32;100736.66;;;9.38;14.82
75549;BME280;64133;56.002;37.208;2023-03-18T12:25:00;100737.66;;;8.62;14.66
75549;BME280;64133;56.002;37.208;2023-03-18T12:30:09;100722.22;;;7.40;15.93
75549;BME280;64133;56.002;37.208;2023-03-18T12:40:59;100713.70;;;7.16;16.24
75549;BME280;64133;56.002;37.208;2023-03-18T12:46:07;100725.67;;;6.43;16.77
75549;BME280;64133;56.002;37.208;2023-03-18T12:51:09;100721.01;;;6.09;17.40
75549;BME280;64133;56.002;37.208;2023-03-18T12:56:14;100718.81;;;6.20;17.48
75549;BME280;64133;56.002;37.208;2023-03-18T13:01:18;100698.93;;;6.37;17.87
75549;BME280;64133;56.002;37.208;2023-03-18T13:06:23;100699.69;;;6.08;17.88
75549;BME280;64133;56.002;37.208;2023-03-18T13:17:25;100688.78;;;6.29;19.24
75549;BME280;64133;56.002;37.208;2023-03-18T13:22:51;100701.66;;;6.03;18.57
75549;BME280;64133;56.002;37.208;2023-03-18T13:28:04;100697.63;;;5.40;19.21
75549;BME280;64133;56.002;37.208;2023-03-18T13:33:22;100693.80;;;5.27;19.79
75549;BME280;64133;56.002;37.208;2023-03-18T13:38:40;100684.68;;;5.37;19.64
75549;BME280;64133;56.002;37.208;2023-03-18T13:43:45;100679.89;;;4.91;19.71
75549;BME280;64133;56.002;37.208;2023-03-18T13:48:53;100673.16;;;4.97;20.09
75549;BME280;64133;56.002;37.208;2023-03-18T13:53:58;100661.18;;;5.25;20.33
75549;BME280;64133;56.002;37.208;2023-03-18T13:59:04;100655.65;;;5.11;20.72
75549;BME280;64133;56.002;37.208;2023-03-18T14:09:50;100649.82;;;4.46;21.18
75549;BME280;64133;56.002;37.208;2023-03-18T14:15:01;100649.38;;;4.21;21.50
75549;BME280;64133;56.002;37.208;2023-03-18T14:20:22;100648.69;;;4.16;21.67
75549;BME280;64133;56.002;37.208;2023-03-18T14:25:48;100649.47;;;4.07;21.93
75549;BME280;64133;56.002;37.208;2023-03-18T14:30:57;100644.60;;;3.96;21.88
75549;BME280;64133;56.002;37.208;2023-03-18T14:36:04;100634.09;;;3.86;22.31
75549;BME280;64133;56.002;37.208;2023-03-18T14:41:15;100627.11;;;3.74;22.46
75549;BME280;64133;56.002;37.208;2023-03-18T14:46:20;100633.41;;;3.67;22.70
75549;BME280;64133;56.002;37.208;2023-03-18T14:51:23;100629.20;;;3.76;22.65
75549;BME280;64133;56.002;37.208;2023-03-18T14:56:34;100626.89;;;3.81;22.79
75549;BME280;64133;56.002;37.208;2023-03-18T15:01:35;100630.97;;;3.63;23.08
75549;BME280;64133;56.002;37.208;2023-03-18T15:06:40;100621.39;;;3.50;23.62
75549;BME280;64133;56.002;37.208;2023-03-18T15:11:45;100610.52;;;3.50;23.55
75549;BME280;64133;56.002;37.208;2023-03-18T15:16:51;100621.18;;;3.43;23.79
75549;BME280;64133;56.002;37.208;2023-03-18T15:21:55;100618.69;;;3.26;23.85
75549;BME280;64133;56.002;37.208;2023-03-18T15:27:03;100620.68;;;3.03;24.30
75549;BME280;64133;56.002;37.208;2023-03-18T15:32:14;100612.67;;;2.82;24.99
75549;BME280;64133;56.002;37.208;2023-03-18T15:43:02;100606.48;;;2.56;26.31
75549;BME280;64133;56.002;37.208;2023-03-18T15:48:06;100601.89;;;2.35;26.80
75549;BME280;64133;56.002;37.208;2023-03-18T15:53:19;100601.63;;;2.13;27.83
75549;BME280;64133;56.002;37.208;2023-03-18T15:58:25;100602.53;;;1.95;28.05
75549;BME280;64133;56.002;37.208;2023-03-18T16:03:31;100612.02;;;1.64;29.18
75549;BME280;64133;56.002;37.208;2023-03-18T16:08:36;100616.71;;;1.49;29.50
75549;BME280;64133;56.002;37.208;2023-03-18T16:13:40;100609.84;;;1.47;28.55
75549;BME280;64133;56.002;37.208;2023-03-18T16:18:47;100611.07;;;1.50;27.21
75549;BME280;64133;56.002;37.208;2023-03-18T16:23:51;100613.11;;;1.37;26.73
75549;BME280;64133;56.002;37.208;2023-03-18T16:28:55;100609.50;;;1.25;26.48
75549;BME280;64133;56.002;37.208;2023-03-18T16:34:00;100601.25;;;1.08;26.85
75549;BME280;64133;56.002;37.208;2023-03-18T16:39:14;100605.41;;;0.97;27.23
75549;BME280;64133;56.002;37.208;2023-03-18T16:44:19;100603.02;;;0.88;27.08
75549;BME280;64133;56.002;37.208;2023-03-18T16:49:23;100603.28;;;0.75;26.86
75549;BME280;64133;56.002;37.208;2023-03-18T16:54:28;100602.98;;;0.70;26.70
75549;BME280;64133;56.002;37.208;2023-03-18T16:59:32;100606.73;;;0.55;27.02
75549;BME280;64133;56.002;37.208;2023-03-18T17:04:37;100604.64;;;0.52;26.55
75549;BME280;64133;56.002;37.208;2023-03-18T17:09:41;100598.06;;;0.56;26.00
75549;BME280;64133;56.002;37.208;2023-03-18T17:14:48;100590.02;;;0.49;26.05
75549;BME280;64133;56.002;37.208;2023-03-18T17:19:52;100589.19;;;0.47;25.90
75549;BME280;64133;56.002;37.208;2023-03-18T17:24:56;100594.86;;;0.45;25.81
75549;BME280;64133;56.002;37.208;2023-03-18T17:30:01;100591.96;;;0.39;25.82
75549;BME280;64133;56.002;37.208;2023-03-18T17:35:12;100586.83;;;0.36;25.79
75549;BME280;64133;56.002;37.208;2023-03-18T17:40:18;100590.70;;;0.15;26.19
75549;BME280;64133;56.002;37.208;2023-03-18T17:45:25;100588.88;;;-0.02;26.98
75549;BME280;64133;56.002;37.208;2023-03-18T17:50:29;100581.59;;;-0.06;26.31
75549;BME280;64133;56.002;37.208;2023-03-18T17:55:33;100579.54;;;-0.11;26.23
75549;BME280;64133;56.002;37.208;2023-03-18T18:00:38;100576.90;;;-0.08;26.00
75549;BME280;64133;56.002;37.208;2023-03-18T18:05:43;100574.09;;;-0.19;26.23
75549;BME280;64133;56.002;37.208;2023-03-18T18:10:48;100583.77;;;-0.31;26.48
75549;BME280;64133;56.002;37.208;2023-03-18T18:15:53;100579.28;;;-0.43;26.58
75549;BME280;64133;56.002;37.208;2023-03-18T18:20:58;100561.36;;;-0.56;26.88
75549;BME280;64133;56.002;37.208;2023-03-18T18:26:03;100572.94;;;-0.53;27.05
75549;BME280;64133;56.002;37.208;2023-03-18T18:31:07;100568.69;;;-0.57;27.33
75549;BME280;64133;56.002;37.208;2023-03-18T18:36:11;100572.36;;;-0.68;27.87
75549;BME280;64133;56.002;37.208;2023-03-18T18:41:16;100584.56;;;-0.77;27.99
75549;BME280;64133;56.002;37.208;2023-03-18T18:46:21;100577.09;;;-0.95;28.86
75549;BME280;64133;56.002;37.208;2023-03-18T18:51:25;100567.67;;;-0.99;29.02
75549;BME280;64133;56.002;37.208;2023-03-18T18:56:31;100568.19;;;-1.06;29.75
75549;BME280;64133;56.002;37.208;2023-03-18T19:01:36;100564.48;;;-1.16;29.97
75549;BME280;64133;56.002;37.208;2023-03-18T19:06:40;100553.77;;;-1.22;30.64
75549;BME280;64133;56.002;37.208;2023-03-18T19:11:45;100556.08;;;-1.32;31.29
75549;BME280;64133;56.002;37.208;2023-03-18T19:16:50;100553.53;;;-1.35;31.60
75549;BME280;64133;56.002;37.208;2023-03-18T19:21:54;100551.08;;;-1.44;32.20
75549;BME280;64133;56.002;37.208;2023-03-18T19:27:01;100542.03;;;-1.44;32.58
75549;BME280;64133;56.002;37.208;2023-03-18T19:32:07;100538.09;;;-1.40;32.68
75549;BME280;64133;56.002;37.208;2023-03-18T19:37:11;100532.95;;;-1.41;33.16
75549;BME280;64133;56.002;37.208;2023-03-18T19:42:18;100533.88;;;-1.45;33.60
75549;BME280;64133;56.002;37.208;2023-03-18T19:47:21;100536.52;;;-1.50;34.04
75549;BME280;64133;56.002;37.208;2023-03-18T19:52:25;100520.71;;;-1.59;34.36
75549;BME280;64133;56.002;37.208;2023-03-18T19:57:29;100520.33;;;-1.63;34.91
75549;BME280;64133;56.002;37.208;2023-03-18T20:02:34;100514.85;;;-1.71;35.36
75549;BME280;64133;56.002;37.208;2023-03-18T20:07:39;100514.50;;;-1.79;36.08
75549;BME280;64133;56.002;37.208;2023-03-18T20:12:44;100522.81;;;-1.87;36.56
75549;BME280;64133;56.002;37.208;2023-03-18T20:17:48;100527.00;;;-1.80;36.85
75549;BME280;64133;56.002;37.208;2023-03-18T20:22:58;100523.63;;;-1.85;37.08
75549;BME280;64133;56.002;37.208;2023-03-18T20:28:02;100518.55;;;-1.91;37.55
75549;BME280;64133;56.002;37.208;2023-03-18T20:33:07;100515.21;;;-1.99;38.14
75549;BME280;64133;56.002;37.208;2023-03-18T20:38:14;100509.58;;;-1.95;38.18
75549;BME280;64133;56.002;37.208;2023-03-18T20:43:19;100503.62;;;-2.02;38.62
75549;BME280;64133;56.002;37.208;2023-03-18T20:48:23;100503.38;;;-2.18;39.34
75549;BME280;64133;56.002;37.208;2023-03-18T20:53:27;100500.86;;;-2.21;39.77
75549;BME280;64133;56.002;37.208;2023-03-18T20:58:32;100490.58;;;-2.28;40.15
75549;BME280;64133;56.002;37.208;2023-03-18T21:03:37;100489.86;;;-2.39;40.68
75549;BME280;64133;56.002;37.208;2023-03-18T21:08:41;100490.77;;;-2.43;41.01
75549;BME280;64133;56.002;37.208;2023-03-18T21:13:46;100485.19;;;-2.45;41.41
75549;BME280;64133;56.002;37.208;2023-03-18T21:18:51;100483.52;;;-2.49;41.71
75549;BME280;64133;56.002;37.208;2023-03-18T21:23:55;100474.05;;;-2.49;41.74
75549;BME280;64133;56.002;37.208;2023-03-18T21:29:00;100476.22;;;-2.50;42.02
75549;BME280;64133;56.002;37.208;2023-03-18T21:34:05;100478.44;;;-2.56;42.54
75549;BME280;64133;56.002;37.208;2023-03-18T21:39:09;100473.30;;;-2.59;42.74
75549;BME280;64133;56.002;37.208;2023-03-18T21:44:14;100477.24;;;-2.65;42.91
75549;BME280;64133;56.002;37.208;2023-03-18T21:49:18;100474.71;;;-2.69;43.27
75549;BME280;64133;56.002;37.208;2023-03-18T21:54:23;100470.45;;;-2.73;43.24
75549;BME280;64133;56.002;37.208;2023-03-18T21:59:28;100470.45;;;-2.73;43.42
75549;BME280;64133;56.002;37.208;2023-03-18T22:04:32;100473.07;;;-2.80;43.85
75549;BME280;64133;56.002;37.208;2023-03-18T22:09:37;100473.55;;;-2.85;44.03
75549;BME280;64133;56.002;37.208;2023-03-18T22:14:42;100473.14;;;-2.86;44.07
75549;BME280;64133;56.002;37.208;2023-03-18T22:19:46;100472.81;;;-2.96;44.46
75549;BME280;64133;56.002;37.208;2023-03-18T22:24:51;100469.82;;;-2.98;44.74
75549;BME280;64133;56.002;37.208;2023-03-18T22:29:56;100462.56;;;-3.05;44.90
75549;BME280;64133;56.002;37.208;2023-03-18T22:35:00;100457.01;;;-3.09;45.02
75549;BME280;64133;56.002;37.208;2023-03-18T22:40:08;100451.91;;;-3.12;45.31
75549;BME280;64133;56.002;37.208;2023-03-18T22:45:19;100447.23;;;-3.17;45.37
75549;BME280;64133;56.002;37.208;2023-03-18T22:50:24;100447.69;;;-3.21;45.65
75549;BME280;64133;56.002;37.208;2023-03-18T22:55:30;100449.41;;;-3.21;45.77
75549;BME280;64133;56.002;37.208;2023-03-18T23:00:35;100450.27;;;-3.24;45.96
75549;BME280;64133;56.002;37.208;2023-03-18T23:05:38;100448.98;;;-3.24;46.09
75549;BME280;64133;56.002;37.208;2023-03-18T23:10:43;100440.84;;;-3.25;46.11
75549;BME280;64133;56.002;37.208;2023-03-18T23:15:48;100437.89;;;-3.32;46.41
75549;BME280;64133;56.002;37.208;2023-03-18T23:20:52;100428.73;;;-3.15;45.70
75549;BME280;64133;56.002;37.208;2023-03-18T23:25:57;100419.69;;;-3.14;45.60
75549;BME280;64133;56.002;37.208;2023-03-18T23:31:01;100416.78;;;-3.24;45.97
75549;BME280;64133;56.002;37.208;2023-03-18T23:36:07;100406.91;;;-3.24;45.81
75549;BME280;64133;56.002;37.208;2023-03-18T23:41:12;100405.70;;;-3.31;46.03
75549;BME280;64133;56.002;37.208;2023-03-18T23:46:16;100403.66;;;-3.43;46.47
75549;BME280;64133;56.002;37.208;2023-03-18T23:51:21;100401.11;;;-3.49;46.67
75549;BME280;64133;56.002;37.208;2023-03-18T23:56:25;100394.55;;;-3.36;45.94
